createdAt,value
2017-12-12T00:02:10.217Z,1.90
2017-12-12T00:04:37.780Z,1.77
2017-12-12T00:07:05.325Z,1.87
2017-12-12T00:09:32.836Z,1.67
2017-12-12T00:12:00.443Z,2.00
2017-12-12T00:14:27.933Z,2.20
2017-12-12T00:16:55.434Z,1.90
2017-12-12T00:19:22.942Z,1.80
2017-12-12T00:21:50.470Z,1.90
2017-12-12T00:24:18.013Z,1.70
2017-12-12T00:26:45.519Z,1.90
2017-12-12T00:29:13.059Z,1.70
2017-12-12T00:31:40.812Z,1.97
2017-12-12T00:34:08.306Z,1.50
2017-12-12T00:36:35.800Z,1.80
2017-12-12T00:39:03.273Z,1.70
2017-12-12T00:41:31.710Z,1.70
2017-12-12T00:43:59.212Z,1.70
2017-12-12T00:46:26.684Z,2.00
2017-12-12T00:48:54.161Z,1.80
2017-12-12T00:51:21.644Z,2.10
2017-12-12T00:53:49.153Z,1.80
2017-12-12T00:56:16.644Z,2.30
2017-12-12T00:58:44.157Z,2.00
2017-12-12T01:01:11.663Z,2.17
2017-12-12T01:03:39.175Z,1.70
2017-12-12T01:06:06.648Z,1.87
2017-12-12T01:08:34.143Z,1.90
2017-12-12T01:11:01.635Z,1.70
2017-12-12T01:13:29.156Z,1.80
2017-12-12T01:15:56.663Z,2.03
2017-12-12T01:18:24.208Z,1.80
2017-12-12T01:20:51.715Z,1.60
2017-12-12T01:23:19.201Z,1.70
2017-12-12T01:25:46.704Z,1.77
2017-12-12T01:28:14.185Z,1.73
2017-12-12T01:30:41.683Z,1.63
2017-12-12T01:33:09.165Z,2.00
2017-12-12T01:35:36.657Z,1.70
2017-12-12T01:38:04.140Z,1.67
2017-12-12T01:40:31.651Z,1.60
2017-12-12T01:42:59.758Z,1.53
2017-12-12T01:45:27.259Z,1.83
2017-12-12T01:47:54.740Z,1.70
2017-12-12T01:50:22.234Z,1.80
2017-12-12T01:52:49.710Z,1.70
2017-12-12T01:55:17.193Z,1.70
2017-12-12T01:57:44.753Z,2.00
2017-12-12T02:00:12.245Z,1.80
2017-12-12T02:02:40.200Z,1.90
2017-12-12T02:05:07.687Z,1.90
2017-12-12T02:07:35.193Z,2.10
2017-12-12T02:10:02.696Z,3.00
2017-12-12T02:12:30.194Z,2.63
2017-12-12T02:14:57.702Z,3.63
2017-12-12T02:17:25.177Z,4.03
2017-12-12T02:19:52.665Z,3.77
2017-12-12T02:22:20.147Z,4.00
2017-12-12T02:24:47.683Z,3.67
2017-12-12T02:27:15.153Z,3.53
2017-12-12T02:29:42.637Z,3.20
2017-12-12T02:32:10.125Z,2.47
2017-12-12T02:34:37.600Z,2.30
2017-12-12T02:37:05.093Z,2.17
2017-12-12T02:39:32.611Z,2.10
2017-12-12T02:42:00.100Z,1.93
2017-12-12T02:44:27.610Z,1.93
2017-12-12T02:46:55.115Z,1.60
2017-12-12T02:49:22.632Z,1.90
2017-12-12T02:51:50.105Z,1.73
2017-12-12T02:54:17.584Z,1.73
2017-12-12T02:56:45.087Z,2.13
2017-12-12T02:59:12.592Z,2.10
2017-12-12T03:01:40.095Z,2.47
2017-12-12T03:04:07.568Z,2.80
2017-12-12T03:06:35.067Z,2.67
2017-12-12T03:09:02.742Z,2.73
2017-12-12T03:11:30.237Z,3.60
2017-12-12T03:13:57.739Z,3.30
2017-12-12T03:16:25.220Z,3.77
2017-12-12T03:18:52.712Z,3.03
2017-12-12T03:21:20.214Z,3.00
2017-12-12T03:23:47.704Z,3.13
2017-12-12T03:26:15.201Z,3.37
2017-12-12T03:28:42.695Z,3.37
2017-12-12T03:31:10.181Z,2.87
2017-12-12T03:33:37.720Z,2.93
2017-12-12T03:36:05.237Z,2.50
2017-12-12T03:38:32.776Z,3.20
2017-12-12T03:41:00.300Z,2.80
2017-12-12T03:43:27.790Z,2.70
2017-12-12T03:45:55.301Z,2.87
2017-12-12T03:48:22.795Z,2.87
2017-12-12T03:50:50.285Z,2.70
2017-12-12T03:53:17.827Z,3.57
2017-12-12T03:55:45.355Z,2.30
2017-12-12T03:58:13.027Z,2.60
2017-12-12T04:00:40.517Z,2.30
2017-12-12T04:03:07.995Z,3.77
2017-12-12T04:05:35.508Z,4.73
2017-12-12T04:08:03.003Z,5.43
2017-12-12T04:10:30.486Z,4.10
2017-12-12T04:12:57.979Z,4.50
2017-12-12T04:15:25.476Z,2.90
2017-12-12T04:17:52.962Z,2.50
2017-12-12T04:20:20.470Z,1.60
2017-12-12T04:22:47.986Z,1.80
2017-12-12T04:25:16.273Z,1.70
2017-12-12T04:27:43.794Z,1.57
2017-12-12T04:30:11.304Z,1.60
2017-12-12T04:32:38.791Z,1.50
2017-12-12T04:35:06.277Z,1.57
2017-12-12T04:37:33.760Z,1.50
2017-12-12T04:40:02.051Z,1.37
2017-12-12T04:42:29.537Z,1.30
2017-12-12T04:44:57.035Z,1.53
2017-12-12T04:47:24.516Z,1.70
2017-12-12T04:49:51.997Z,1.70
2017-12-12T04:52:19.522Z,1.80
2017-12-12T04:54:47.020Z,2.00
2017-12-12T04:57:14.527Z,2.97
2017-12-12T04:59:42.041Z,3.10
2017-12-12T05:02:09.562Z,3.40
2017-12-12T05:04:37.042Z,4.60
2017-12-12T05:07:04.532Z,4.77
2017-12-12T05:09:32.043Z,4.87
2017-12-12T05:11:59.541Z,4.80
2017-12-12T05:14:27.051Z,4.73
2017-12-12T05:16:54.576Z,4.83
2017-12-12T05:19:22.057Z,4.60
2017-12-12T05:21:49.535Z,5.00
2017-12-12T05:24:17.024Z,5.27
2017-12-12T05:26:44.509Z,4.93
2017-12-12T05:29:11.985Z,4.87
2017-12-12T05:31:39.497Z,4.77
2017-12-12T05:34:06.991Z,5.00
2017-12-12T05:36:34.507Z,4.70
2017-12-12T05:39:02.011Z,4.80
2017-12-12T05:41:29.502Z,5.57
2017-12-12T05:43:57.050Z,4.77
2017-12-12T05:46:24.571Z,5.13
2017-12-12T05:48:52.096Z,5.50
2017-12-12T05:51:19.572Z,5.40
2017-12-12T05:53:47.083Z,6.33
2017-12-12T05:59:12.488Z,5.77
2017-12-12T06:01:40.004Z,5.60
2017-12-12T06:04:14.396Z,5.77
2017-12-12T06:06:41.905Z,6.70
2017-12-12T06:09:09.398Z,6.13
2017-12-12T06:11:36.897Z,6.60
2017-12-12T06:14:05.480Z,6.47
2017-12-12T06:16:32.983Z,6.50
2017-12-12T06:19:00.483Z,6.40
2017-12-12T06:21:27.987Z,6.77
2017-12-12T06:23:55.495Z,6.70
2017-12-12T06:26:22.995Z,6.93
2017-12-12T06:28:50.483Z,7.07
2017-12-12T06:31:17.986Z,7.17
2017-12-12T06:33:45.465Z,6.27
2017-12-12T06:36:12.961Z,7.00
2017-12-12T06:38:40.494Z,6.17
2017-12-12T06:41:07.994Z,6.07
2017-12-12T06:43:35.480Z,5.77
2017-12-12T06:46:03.019Z,6.40
2017-12-12T06:48:30.505Z,6.13
2017-12-12T06:50:58.008Z,5.90
2017-12-12T06:53:25.476Z,5.70
2017-12-12T06:55:52.955Z,5.70
2017-12-12T06:58:20.443Z,6.00
2017-12-12T07:00:47.939Z,6.50
2017-12-12T07:03:15.415Z,6.47
2017-12-12T07:05:43.639Z,6.93
2017-12-12T07:08:11.127Z,7.27
2017-12-12T07:10:38.620Z,7.30
2017-12-12T07:13:06.115Z,7.73
2017-12-12T07:15:33.626Z,7.87
2017-12-12T07:18:01.142Z,7.97
2017-12-12T07:20:28.666Z,8.10
2017-12-12T07:22:56.143Z,7.77
2017-12-12T07:25:23.635Z,8.37
2017-12-12T07:27:51.114Z,8.50
2017-12-12T07:30:18.621Z,8.17
2017-12-12T07:32:46.097Z,7.80
2017-12-12T07:35:13.588Z,6.77
2017-12-12T07:37:41.089Z,7.27
2017-12-12T07:40:08.585Z,7.40
2017-12-12T07:42:36.099Z,8.27
2017-12-12T07:45:03.600Z,7.63
2017-12-12T07:47:31.105Z,7.83
2017-12-12T07:49:58.631Z,7.17
2017-12-12T07:52:26.119Z,7.27
2017-12-12T07:54:53.619Z,7.20
2017-12-12T07:57:21.109Z,7.30
2017-12-12T07:59:48.597Z,7.23
2017-12-12T08:02:16.878Z,6.73
2017-12-12T08:04:44.378Z,7.53
2017-12-12T08:07:11.914Z,8.50
2017-12-12T08:09:42.423Z,8.33
2017-12-12T08:12:09.939Z,9.33
2017-12-12T08:14:37.447Z,9.90
2017-12-12T08:17:04.935Z,8.97
2017-12-12T08:19:32.437Z,9.13
2017-12-12T08:22:00.387Z,10.90
2017-12-12T08:24:27.891Z,11.47
2017-12-12T08:26:55.430Z,11.20
2017-12-12T08:29:22.929Z,10.70
2017-12-12T08:31:51.076Z,11.07
2017-12-12T08:34:18.573Z,10.83
2017-12-12T08:36:46.093Z,11.47
2017-12-12T08:39:13.589Z,12.07
2017-12-12T08:41:41.101Z,12.93
2017-12-12T08:44:08.605Z,13.27
2017-12-12T08:46:36.094Z,12.63
2017-12-12T08:49:03.657Z,13.53
2017-12-12T08:51:31.166Z,13.00
2017-12-12T08:53:58.726Z,12.80
2017-12-12T08:56:26.217Z,12.53
2017-12-12T08:58:53.744Z,11.73
2017-12-12T09:01:21.228Z,12.40
2017-12-12T09:03:48.731Z,12.57
2017-12-12T09:06:16.270Z,12.10
2017-12-12T09:08:44.213Z,11.33
2017-12-12T09:11:11.717Z,11.80
2017-12-12T09:13:39.625Z,10.47
2017-12-12T09:16:07.130Z,9.73
2017-12-12T09:18:34.618Z,9.37
2017-12-12T09:21:02.134Z,9.10
2017-12-12T09:23:29.641Z,9.70
2017-12-12T09:25:57.151Z,8.27
2017-12-12T09:28:24.660Z,8.53
2017-12-12T09:30:52.165Z,7.87
2017-12-12T09:33:19.651Z,8.60
2017-12-12T09:35:47.157Z,9.63
2017-12-12T09:38:14.664Z,9.17
2017-12-12T09:40:42.173Z,8.30
2017-12-12T09:43:09.690Z,8.43
2017-12-12T09:45:37.168Z,8.00
2017-12-12T09:48:04.651Z,7.97
2017-12-12T09:50:32.148Z,8.23
2017-12-12T09:52:59.625Z,8.43
2017-12-12T09:55:27.120Z,9.33
2017-12-12T09:57:54.618Z,8.90
2017-12-12T10:00:22.093Z,8.80
2017-12-12T10:02:49.589Z,9.43
2017-12-12T10:05:17.455Z,8.80
2017-12-12T10:07:44.946Z,9.53
2017-12-12T10:10:12.443Z,9.57
2017-12-12T10:12:39.934Z,8.70
2017-12-12T10:15:07.420Z,8.73
2017-12-12T10:17:34.909Z,9.90
2017-12-12T10:20:02.421Z,9.07
2017-12-12T10:22:29.902Z,9.70
2017-12-12T10:24:57.392Z,9.10
2017-12-12T10:27:24.919Z,9.67
2017-12-12T10:29:52.405Z,8.77
2017-12-12T10:32:19.913Z,9.27
2017-12-12T10:34:47.407Z,9.57
2017-12-12T10:37:14.910Z,9.80
2017-12-12T10:39:42.414Z,8.93
2017-12-12T10:42:09.907Z,10.10
2017-12-12T10:44:37.380Z,9.83
2017-12-12T10:47:04.911Z,9.90
2017-12-12T10:49:32.451Z,10.40
2017-12-12T10:51:59.941Z,10.20
2017-12-12T10:54:28.375Z,10.43
2017-12-12T10:56:56.649Z,10.60
2017-12-12T10:59:24.149Z,11.17
2017-12-12T11:01:51.661Z,12.53
2017-12-12T11:04:19.136Z,12.37
2017-12-12T11:06:46.618Z,13.40
2017-12-12T11:09:14.136Z,12.60
2017-12-12T11:11:41.627Z,13.77
2017-12-12T11:14:09.114Z,13.43
2017-12-12T11:16:36.632Z,12.90
2017-12-12T11:19:04.177Z,12.43
2017-12-12T11:21:31.685Z,13.07
2017-12-12T11:23:59.209Z,12.77
2017-12-12T11:26:26.707Z,12.00
2017-12-12T11:28:54.244Z,12.70
2017-12-12T11:31:21.740Z,12.40
2017-12-12T11:33:49.252Z,11.73
2017-12-12T11:36:16.758Z,12.20
2017-12-12T11:38:44.274Z,12.37
2017-12-12T11:41:11.769Z,12.30
2017-12-12T11:43:39.311Z,12.60
2017-12-12T11:46:06.803Z,11.40
2017-12-12T11:48:34.338Z,9.90
2017-12-12T11:51:02.341Z,10.67
2017-12-12T11:53:29.825Z,11.10
2017-12-12T11:55:57.321Z,10.60
2017-12-12T11:58:24.820Z,9.83
2017-12-12T12:00:52.360Z,10.50
2017-12-12T12:03:19.847Z,11.13
2017-12-12T12:05:48.851Z,9.43
2017-12-12T12:08:16.364Z,9.30
2017-12-12T12:10:43.858Z,9.93
2017-12-12T12:13:11.392Z,10.67
2017-12-12T12:15:38.889Z,9.87
2017-12-12T12:18:06.404Z,9.33
2017-12-12T12:20:33.917Z,10.03
2017-12-12T12:23:01.427Z,9.77
2017-12-12T12:25:28.939Z,9.20
2017-12-12T12:27:56.445Z,9.97
2017-12-12T12:30:23.987Z,9.73
2017-12-12T12:32:51.498Z,9.37
2017-12-12T12:35:19.007Z,9.47
2017-12-12T12:37:46.524Z,9.80
2017-12-12T12:40:14.012Z,9.47
2017-12-12T12:42:41.493Z,9.30
2017-12-12T12:45:09.007Z,10.37
2017-12-12T12:47:36.520Z,9.73
2017-12-12T12:50:04.035Z,9.40
2017-12-12T12:52:31.529Z,9.37
2017-12-12T12:54:59.891Z,8.60
2017-12-12T12:57:27.368Z,9.57
2017-12-12T12:59:54.849Z,8.67
2017-12-12T13:02:22.342Z,9.70
2017-12-12T13:04:49.813Z,8.03
2017-12-12T13:07:17.314Z,8.20
2017-12-12T13:09:44.808Z,8.23
2017-12-12T13:12:12.284Z,7.60
2017-12-12T13:14:39.784Z,7.47
2017-12-12T13:17:07.301Z,7.47
2017-12-12T13:19:34.777Z,7.90
2017-12-12T13:22:02.261Z,6.83
2017-12-12T13:24:29.731Z,6.87
2017-12-12T13:26:57.264Z,6.83
2017-12-12T13:29:24.792Z,7.17
2017-12-12T13:31:52.293Z,7.20
2017-12-12T13:34:19.795Z,7.47
2017-12-12T13:36:47.305Z,6.80
2017-12-12T13:39:14.789Z,6.63
2017-12-12T13:41:42.283Z,6.70
2017-12-12T13:44:09.770Z,6.23
2017-12-12T13:46:37.280Z,6.80
2017-12-12T13:49:04.786Z,6.73
2017-12-12T13:51:32.292Z,6.23
2017-12-12T13:53:59.820Z,6.70
2017-12-12T13:56:30.706Z,6.00
2017-12-12T13:58:58.193Z,6.73
2017-12-12T14:01:25.668Z,6.63
2017-12-12T14:03:53.161Z,6.90
2017-12-12T14:06:20.687Z,6.77
2017-12-12T14:08:48.181Z,6.47
2017-12-12T14:11:15.665Z,6.47
2017-12-12T14:13:43.177Z,6.70
2017-12-12T14:16:10.657Z,6.53
2017-12-12T14:18:38.172Z,6.90
2017-12-12T14:21:05.672Z,7.07
2017-12-12T14:23:33.172Z,7.27
2017-12-12T14:26:00.680Z,6.33
2017-12-12T14:28:28.235Z,6.97
2017-12-12T14:30:55.713Z,6.97
2017-12-12T14:33:23.224Z,7.23
2017-12-12T14:35:50.718Z,7.37
2017-12-12T14:38:18.208Z,6.20
2017-12-12T14:40:45.706Z,7.40
2017-12-12T14:43:13.181Z,7.30
2017-12-12T14:45:40.760Z,7.67
2017-12-12T14:48:08.270Z,7.30
2017-12-12T14:50:35.763Z,7.57
2017-12-12T14:53:03.950Z,6.70
2017-12-12T14:55:31.437Z,7.60
2017-12-12T14:57:58.937Z,6.73
2017-12-12T15:00:38.647Z,6.80
2017-12-12T15:03:06.235Z,7.27
2017-12-12T15:05:33.731Z,8.20
2017-12-12T15:08:01.217Z,7.77
2017-12-12T15:10:28.730Z,7.73
2017-12-12T15:12:56.229Z,7.40
2017-12-12T15:15:23.710Z,7.47
2017-12-12T15:17:51.235Z,7.77
2017-12-12T15:20:18.743Z,8.27
2017-12-12T15:22:46.262Z,7.27
2017-12-12T15:25:13.761Z,7.13
2017-12-12T15:27:41.772Z,7.97
2017-12-12T15:30:09.301Z,7.40
2017-12-12T15:32:36.823Z,7.80
2017-12-12T15:35:04.297Z,7.57
2017-12-12T15:37:31.791Z,7.60
2017-12-12T15:39:59.296Z,7.70
2017-12-12T15:42:26.791Z,8.00
2017-12-12T15:44:54.276Z,7.10
2017-12-12T15:47:21.853Z,6.90
2017-12-12T15:49:49.341Z,7.70
2017-12-12T15:52:16.835Z,8.60
2017-12-12T15:54:44.349Z,8.60
2017-12-12T15:57:11.839Z,8.33
2017-12-12T15:59:39.349Z,9.50
2017-12-12T16:02:06.871Z,9.03
2017-12-12T16:04:34.368Z,9.40
2017-12-12T16:07:01.871Z,9.40
2017-12-12T16:09:29.381Z,9.47
2017-12-12T16:11:57.958Z,9.73
2017-12-12T16:14:25.463Z,9.37
2017-12-12T16:16:52.973Z,9.23
2017-12-12T16:19:20.477Z,9.50
2017-12-12T16:21:48.125Z,10.43
2017-12-12T16:24:15.632Z,8.90
2017-12-12T16:26:43.143Z,9.10
2017-12-12T16:29:10.655Z,8.20
2017-12-12T16:31:38.181Z,8.60
2017-12-12T16:34:05.688Z,9.60
2017-12-12T16:36:33.193Z,9.57
2017-12-12T16:39:00.735Z,10.20
2017-12-12T16:41:28.230Z,9.13
2017-12-12T16:43:55.734Z,10.47
2017-12-12T16:46:23.230Z,8.83
2017-12-12T16:48:50.739Z,9.43
2017-12-12T16:51:18.250Z,9.87
2017-12-12T16:53:45.999Z,10.20
2017-12-12T16:56:13.492Z,9.93
2017-12-12T16:58:40.987Z,10.33
2017-12-12T17:01:09.192Z,9.27
2017-12-12T17:03:36.715Z,10.03
2017-12-12T17:06:04.242Z,10.93
2017-12-12T17:08:32.896Z,10.13
2017-12-12T17:11:00.625Z,10.47
2017-12-12T17:13:28.128Z,11.70
2017-12-12T17:15:55.697Z,11.73
2017-12-12T17:18:24.075Z,13.23
2017-12-12T17:20:51.591Z,10.37
2017-12-12T17:23:19.443Z,10.93
2017-12-12T17:25:46.948Z,11.50
2017-12-12T17:28:14.446Z,12.57
2017-12-12T17:30:41.998Z,12.53
2017-12-12T17:33:09.960Z,12.27
2017-12-12T17:35:37.482Z,12.87
2017-12-12T17:38:04.982Z,13.67
2017-12-12T17:40:32.511Z,12.73
2017-12-12T17:43:00.009Z,13.30
2017-12-12T17:45:27.526Z,14.70
2017-12-12T17:47:55.023Z,13.30
2017-12-12T17:50:22.672Z,15.63
2017-12-12T17:52:50.228Z,14.97
2017-12-12T17:55:25.290Z,14.47
2017-12-12T17:57:52.859Z,15.53
2017-12-12T18:00:20.419Z,17.03
2017-12-12T18:02:47.944Z,17.33
2017-12-12T18:05:15.428Z,17.67
2017-12-12T18:07:42.924Z,16.17
2017-12-12T18:10:10.409Z,16.40
2017-12-12T18:12:37.931Z,16.60
2017-12-12T18:15:05.630Z,16.47
2017-12-12T18:17:33.183Z,17.73
2017-12-12T18:20:00.659Z,17.07
2017-12-12T18:22:28.261Z,18.33
2017-12-12T18:24:55.795Z,17.37
2017-12-12T18:27:23.292Z,17.67
2017-12-12T18:29:50.820Z,17.83
2017-12-12T18:32:18.322Z,18.20
2017-12-12T18:34:45.838Z,17.17
2017-12-12T18:37:13.351Z,18.30
2017-12-12T18:39:40.837Z,17.33
2017-12-12T18:42:08.405Z,18.03
2017-12-12T18:44:35.948Z,19.80
2017-12-12T18:47:03.444Z,19.03
2017-12-12T18:49:31.027Z,20.17
2017-12-12T18:51:58.588Z,20.03
2017-12-12T18:54:26.101Z,20.33
2017-12-12T18:56:53.636Z,20.77
2017-12-12T18:59:21.137Z,21.20
2017-12-12T19:01:48.743Z,20.90
2017-12-12T19:04:16.254Z,21.30
2017-12-12T19:06:43.751Z,21.13
2017-12-12T19:09:11.279Z,20.33
2017-12-12T19:11:38.820Z,19.67
2017-12-12T19:14:06.333Z,21.30
2017-12-12T19:16:33.864Z,21.03
2017-12-12T19:19:01.642Z,22.47
2017-12-12T19:21:29.140Z,21.83
2017-12-12T19:26:34.195Z,23.00
2017-12-12T19:29:02.011Z,26.20
2017-12-12T19:31:29.527Z,23.47
2017-12-12T19:33:57.071Z,22.77
2017-12-12T19:36:24.647Z,24.77
2017-12-12T19:38:52.147Z,24.03
2017-12-12T19:41:19.661Z,24.27
2017-12-12T19:43:47.284Z,25.13
2017-12-12T19:46:14.805Z,24.33
2017-12-12T19:48:42.311Z,23.30
2017-12-12T19:51:09.837Z,25.10
2017-12-12T19:53:37.368Z,25.10
2017-12-12T19:56:04.865Z,25.07
2017-12-12T19:58:32.424Z,24.77
2017-12-12T20:00:59.954Z,25.27
2017-12-12T20:03:28.245Z,25.23
2017-12-12T20:05:55.741Z,24.80
2017-12-12T20:08:23.269Z,25.90
2017-12-12T20:10:50.785Z,27.30
2017-12-12T20:13:18.318Z,25.43
2017-12-12T20:15:45.841Z,26.07
2017-12-12T20:18:13.320Z,24.77
2017-12-12T20:20:40.833Z,27.70
2017-12-12T20:23:09.198Z,27.20
2017-12-12T20:25:36.729Z,26.93
2017-12-12T20:28:04.229Z,27.10
2017-12-12T20:30:31.738Z,26.20
2017-12-12T20:32:59.354Z,26.83
2017-12-12T20:35:26.867Z,27.60
2017-12-12T20:37:54.450Z,27.67
2017-12-12T20:40:21.963Z,26.07
2017-12-12T20:42:49.477Z,25.97
2017-12-12T20:45:16.993Z,25.43
2017-12-12T20:47:44.668Z,24.53
2017-12-12T20:50:12.182Z,25.20
2017-12-12T20:52:39.691Z,25.20
2017-12-12T20:55:07.193Z,24.90
2017-12-12T20:57:34.718Z,26.90
2017-12-12T21:00:02.220Z,25.50
2017-12-12T21:02:29.716Z,28.07
2017-12-12T21:04:57.248Z,26.93
2017-12-12T21:07:30.369Z,28.90
2017-12-12T21:09:57.880Z,28.53
2017-12-12T21:12:25.417Z,28.80
2017-12-12T21:14:52.937Z,26.97
2017-12-12T21:17:20.448Z,24.90
2017-12-12T21:19:47.977Z,24.93
2017-12-12T21:22:15.472Z,26.00
2017-12-12T21:24:42.971Z,26.27
2017-12-12T21:27:10.476Z,24.93
2017-12-12T21:29:37.978Z,26.33
2017-12-12T21:32:05.583Z,27.20
2017-12-12T21:34:33.089Z,26.67
2017-12-12T21:37:00.599Z,25.87
2017-12-12T21:39:28.125Z,27.10
2017-12-12T21:41:55.615Z,25.47
2017-12-12T21:44:23.153Z,27.90
2017-12-12T21:46:50.670Z,26.23
2017-12-12T21:49:18.195Z,24.80
2017-12-12T21:51:45.705Z,26.20
2017-12-12T21:54:13.205Z,25.97
2017-12-12T21:56:40.690Z,25.60
2017-12-12T21:59:08.184Z,25.30
2017-12-12T22:01:35.696Z,25.53
2017-12-12T22:04:03.189Z,26.17
2017-12-12T22:06:30.685Z,27.07
2017-12-12T22:08:58.168Z,27.83
2017-12-12T22:11:25.671Z,28.73
2017-12-12T22:13:53.805Z,27.73
2017-12-12T22:16:21.328Z,24.60
2017-12-12T22:18:48.884Z,24.20
2017-12-12T22:21:16.410Z,24.33
2017-12-12T22:23:43.900Z,26.57
2017-12-12T22:26:11.407Z,26.30
2017-12-12T22:28:38.913Z,23.47
2017-12-12T22:31:06.417Z,23.53
2017-12-12T22:33:33.929Z,22.23
2017-12-12T22:36:01.464Z,23.47
2017-12-12T22:38:28.992Z,24.20
2017-12-12T22:40:56.499Z,22.03
2017-12-12T22:43:24.042Z,21.93
2017-12-12T22:45:51.595Z,22.83
2017-12-12T22:48:19.111Z,22.13
2017-12-12T22:50:46.602Z,21.80
2017-12-12T22:53:14.107Z,22.13
2017-12-12T22:55:41.619Z,21.07
2017-12-12T22:58:09.143Z,21.90
2017-12-12T23:00:36.655Z,20.33
2017-12-12T23:03:04.178Z,21.00
2017-12-12T23:05:31.785Z,21.10
2017-12-12T23:07:59.281Z,21.13
2017-12-12T23:10:26.776Z,20.53
2017-12-12T23:12:54.273Z,19.13
2017-12-12T23:15:21.785Z,19.23
2017-12-12T23:17:49.289Z,19.83
2017-12-12T23:20:16.806Z,17.93
2017-12-12T23:22:44.347Z,18.93
2017-12-12T23:25:11.855Z,16.60
2017-12-12T23:27:39.381Z,17.73
2017-12-12T23:30:06.891Z,16.63
2017-12-12T23:32:34.429Z,17.83
2017-12-12T23:35:01.931Z,18.10
2017-12-12T23:37:29.466Z,16.37
2017-12-12T23:39:56.999Z,16.67
2017-12-12T23:42:24.501Z,15.17
2017-12-12T23:44:52.004Z,15.57
2017-12-12T23:47:19.516Z,16.53
2017-12-12T23:49:47.030Z,15.33
2017-12-12T23:52:14.529Z,16.00
2017-12-12T23:54:42.024Z,16.80
2017-12-12T23:57:09.517Z,16.97
2017-12-12T23:59:37.041Z,15.70
